createdAt,value
2018-11-02T06:49:13.594Z,10.25
2018-11-02T06:51:42.712Z,10.50
2018-11-02T06:54:11.859Z,10.59
2018-11-02T06:56:40.988Z,10.60
2018-11-02T06:59:10.211Z,10.55
2018-11-02T07:01:39.257Z,10.49
2018-11-02T07:04:08.296Z,10.52
2018-11-02T07:06:37.300Z,10.56
2018-11-02T07:09:09.528Z,10.71
2018-11-02T07:11:38.741Z,10.80
2018-11-02T07:14:10.692Z,10.84
2018-11-02T07:16:39.807Z,10.90
2018-11-02T07:19:09.314Z,10.90
2018-11-02T07:21:38.420Z,10.89
2018-11-02T07:24:08.030Z,11.02
2018-11-02T07:26:37.078Z,11.14
2018-11-02T07:29:06.826Z,11.18
2018-11-02T07:31:42.199Z,11.44
2018-11-02T07:34:11.279Z,11.44
2018-11-02T07:36:40.330Z,11.37
2018-11-02T07:39:27.322Z,11.88
2018-11-02T07:41:56.689Z,12.14
2018-11-02T07:44:25.887Z,12.44
2018-11-02T07:46:56.386Z,12.64
2018-11-02T07:49:25.795Z,12.54
2018-11-02T07:51:54.788Z,12.76
2018-11-02T07:54:24.123Z,12.76
2018-11-02T07:56:53.168Z,12.79
2018-11-02T07:59:22.565Z,12.96
2018-11-02T08:01:51.803Z,12.83
2018-11-02T08:04:20.561Z,12.71
2018-11-02T08:06:49.629Z,12.42
2018-11-02T08:09:18.553Z,12.65
2018-11-02T08:11:47.371Z,12.46
2018-11-02T08:14:16.320Z,12.49
2018-11-02T08:16:45.289Z,12.22
2018-11-02T08:19:14.227Z,12.44
2018-11-02T08:21:43.117Z,12.32
2018-11-02T08:24:12.069Z,12.17
2018-11-02T08:26:41.388Z,12.18
2018-11-02T08:29:10.630Z,12.49
2018-11-02T08:31:39.820Z,13.17
2018-11-02T08:34:08.858Z,13.66
2018-11-02T08:36:37.823Z,13.80
2018-11-02T08:39:09.485Z,14.05
2018-11-02T08:41:38.429Z,13.93
2018-11-02T08:44:07.842Z,13.97
2018-11-02T08:46:36.968Z,13.41
2018-11-02T08:49:05.902Z,13.34
2018-11-02T08:51:34.884Z,13.50
2018-11-02T08:54:03.846Z,13.37
2018-11-02T08:56:32.807Z,13.16
2018-11-02T08:59:01.836Z,13.33
2018-11-02T09:01:31.067Z,13.48
2018-11-02T09:04:00.019Z,13.73
2018-11-02T09:06:29.008Z,14.03
2018-11-02T09:08:58.092Z,14.69
2018-11-02T09:11:27.211Z,15.72
2018-11-02T09:13:56.433Z,16.57
2018-11-02T09:16:25.683Z,17.57
2018-11-02T09:18:54.825Z,18.24
2018-11-02T09:21:23.920Z,19.15
2018-11-02T09:23:53.157Z,19.88
2018-11-02T09:26:22.595Z,20.52
2018-11-02T09:28:52.089Z,19.40
2018-11-02T09:31:25.444Z,19.68
2018-11-02T09:33:55.674Z,19.75
2018-11-02T09:36:24.872Z,19.18
2018-11-02T09:38:54.146Z,20.16
2018-11-02T09:41:23.483Z,19.49
2018-11-02T09:43:52.650Z,20.34
2018-11-02T09:46:23.080Z,20.59
2018-11-02T09:48:52.228Z,20.05
2018-11-02T09:51:21.471Z,19.96
2018-11-02T09:53:50.613Z,20.86
2018-11-02T09:56:19.716Z,20.65
2018-11-02T09:58:48.992Z,20.95
2018-11-02T10:01:18.204Z,20.53
2018-11-02T10:03:47.356Z,20.31
2018-11-02T10:06:16.625Z,19.61
2018-11-02T10:08:45.789Z,20.42
2018-11-02T10:11:14.903Z,20.82
2018-11-02T10:13:44.093Z,20.77
2018-11-02T10:16:13.477Z,20.80
2018-11-02T10:18:42.734Z,20.02
2018-11-02T10:21:11.897Z,20.41
2018-11-02T10:23:41.048Z,20.68
2018-11-02T10:26:10.266Z,20.10
2018-11-02T10:28:39.609Z,20.60
2018-11-02T10:31:08.907Z,21.72
2018-11-02T10:33:38.070Z,22.27
2018-11-02T10:36:07.367Z,22.68
2018-11-02T10:38:36.658Z,22.87
2018-11-02T10:41:06.798Z,22.79
2018-11-02T10:43:36.429Z,22.79
2018-11-02T10:46:05.784Z,22.40
2018-11-02T10:48:34.976Z,23.64
2018-11-02T10:51:05.082Z,23.34
2018-11-02T10:53:34.219Z,24.73
2018-11-02T10:56:03.716Z,24.60
2018-11-02T10:58:33.070Z,24.41
2018-11-02T11:01:07.826Z,24.17
2018-11-02T11:03:36.900Z,24.98
2018-11-02T11:06:06.240Z,24.83
2018-11-02T11:08:35.395Z,24.57
2018-11-02T11:11:04.670Z,24.38
2018-11-02T11:13:33.918Z,23.67
2018-11-02T11:16:02.980Z,22.65
2018-11-02T11:18:32.178Z,23.40
2018-11-02T11:21:01.537Z,23.70
2018-11-02T11:23:30.643Z,23.79
2018-11-02T11:25:59.716Z,23.97
2018-11-02T11:28:28.850Z,23.84
2018-11-02T11:30:58.380Z,24.29
2018-11-02T11:33:27.521Z,24.59
2018-11-02T11:35:56.616Z,24.88
2018-11-02T11:38:25.783Z,25.18
2018-11-02T11:40:54.993Z,24.99
2018-11-02T11:43:24.112Z,23.74
2018-11-02T11:45:53.237Z,22.86
2018-11-02T11:48:22.603Z,23.77
2018-11-02T11:50:51.782Z,24.49
2018-11-02T11:53:20.925Z,23.92
2018-11-02T11:55:50.800Z,23.57
2018-11-02T11:58:19.898Z,22.92
2018-11-02T12:00:49.024Z,22.15
2018-11-02T12:03:18.156Z,20.72
2018-11-02T12:05:47.367Z,20.77
2018-11-02T12:08:16.483Z,20.82
2018-11-02T12:10:45.687Z,20.78
2018-11-02T12:13:14.929Z,20.98
2018-11-02T12:15:44.132Z,20.93
2018-11-02T12:18:13.410Z,20.41
2018-11-02T12:20:42.672Z,20.17
2018-11-02T12:23:11.846Z,19.83
2018-11-02T12:25:40.945Z,19.59
2018-11-02T12:28:10.110Z,19.37
2018-11-02T12:30:39.211Z,19.34
2018-11-02T12:33:08.397Z,18.86
2018-11-02T12:35:37.431Z,19.00
2018-11-02T12:38:06.610Z,19.07
2018-11-02T12:40:35.677Z,18.89
2018-11-02T12:43:05.523Z,18.98
2018-11-02T12:45:34.642Z,18.90
2018-11-02T12:48:03.888Z,18.78
2018-11-02T12:50:32.966Z,18.69
2018-11-02T12:53:02.087Z,18.58
2018-11-02T12:55:31.177Z,18.24
2018-11-02T12:58:00.260Z,18.13
2018-11-02T13:00:29.437Z,18.09
2018-11-02T13:02:58.608Z,18.14
2018-11-02T13:05:27.770Z,18.13
2018-11-02T13:07:57.031Z,18.13
2018-11-02T13:10:26.220Z,18.26
2018-11-02T13:12:55.409Z,18.25
2018-11-02T13:15:24.858Z,18.21
2018-11-02T13:17:54.083Z,17.85
2018-11-02T13:20:23.228Z,17.79
2018-11-02T13:22:52.412Z,17.80
2018-11-02T13:25:21.969Z,17.83
2018-11-02T13:27:51.700Z,17.74
2018-11-02T13:30:21.003Z,17.71
2018-11-02T13:32:50.079Z,17.65
2018-11-02T13:35:19.767Z,17.62
2018-11-02T13:37:49.474Z,17.67
2018-11-02T13:40:18.916Z,17.58
2018-11-02T13:42:48.141Z,17.58
2018-11-02T13:45:17.989Z,17.67
2018-11-02T13:47:47.147Z,17.68
2018-11-02T13:50:16.277Z,17.84
2018-11-02T13:52:45.474Z,18.01
2018-11-02T13:55:14.626Z,18.20
2018-11-02T13:57:43.739Z,18.27
2018-11-02T14:00:14.601Z,18.29
2018-11-02T14:02:43.792Z,18.14
2018-11-02T14:05:14.133Z,18.08
2018-11-02T14:07:43.263Z,18.19
2018-11-02T14:10:13.023Z,18.23
2018-11-02T14:12:43.063Z,18.29
2018-11-02T14:15:13.721Z,18.16
2018-11-02T14:17:43.166Z,18.12
2018-11-02T14:20:13.172Z,17.98
2018-11-02T14:22:42.314Z,17.80
2018-11-02T14:25:12.847Z,17.64
2018-11-02T14:27:41.979Z,17.71
2018-11-02T14:30:15.995Z,17.78
2018-11-02T14:32:45.984Z,17.66
2018-11-02T14:35:15.081Z,17.29
2018-11-02T14:37:44.245Z,16.91
2018-11-02T14:40:13.447Z,16.62
2018-11-02T14:42:42.768Z,16.50
2018-11-02T14:45:14.633Z,16.42
2018-11-02T14:47:44.671Z,16.29
2018-11-02T14:50:13.829Z,16.16
2018-11-02T14:52:42.893Z,16.03
2018-11-02T14:55:12.091Z,15.89
2018-11-02T14:57:41.171Z,15.69
2018-11-02T15:00:11.543Z,15.64
2018-11-02T15:02:41.241Z,15.46
2018-11-02T15:05:11.911Z,15.40
2018-11-02T15:07:42.862Z,15.26
2018-11-02T15:10:12.047Z,15.27
2018-11-02T15:12:41.173Z,15.22
2018-11-02T15:15:10.389Z,15.23
2018-11-02T15:17:39.841Z,15.23
2018-11-02T15:20:11.925Z,15.18
2018-11-02T15:22:41.072Z,15.07
2018-11-02T15:25:10.494Z,15.00
2018-11-02T15:27:39.959Z,15.03
2018-11-02T15:30:11.598Z,15.04
2018-11-02T15:32:41.279Z,15.12
2018-11-02T15:35:11.282Z,15.24
2018-11-02T15:37:40.883Z,15.38
2018-11-02T15:40:11.235Z,15.44
2018-11-02T15:42:40.611Z,15.51
2018-11-02T15:45:12.894Z,15.63
2018-11-02T15:47:42.538Z,15.68
2018-11-02T15:50:11.792Z,15.75
2018-11-02T15:52:41.045Z,15.93
2018-11-02T15:55:11.236Z,15.97
2018-11-02T15:57:40.336Z,16.01
2018-11-02T16:00:14.942Z,16.11
2018-11-02T16:02:45.296Z,16.20
2018-11-02T16:05:14.424Z,16.28
2018-11-02T16:07:43.504Z,16.60
2018-11-02T16:10:12.847Z,16.68
2018-11-02T16:12:42.768Z,16.58
2018-11-02T16:15:12.158Z,16.86
2018-11-02T16:17:41.319Z,16.94
2018-11-02T16:20:13.500Z,17.02
2018-11-02T16:22:43.038Z,17.13
2018-11-02T16:25:12.927Z,17.03
2018-11-02T16:27:42.759Z,17.06
2018-11-02T16:30:12.303Z,16.97
2018-11-02T16:32:41.235Z,16.79
2018-11-02T16:35:11.073Z,16.64
2018-11-02T16:37:40.195Z,16.57
2018-11-02T16:40:13.208Z,16.49
2018-11-02T16:42:43.142Z,16.64
2018-11-02T16:45:13.112Z,16.75
2018-11-02T16:47:42.931Z,16.90
2018-11-02T16:50:13.125Z,17.04
2018-11-02T16:52:42.732Z,17.11
2018-11-02T16:55:11.838Z,16.97
2018-11-02T16:57:41.132Z,16.78
2018-11-02T17:00:15.753Z,16.83
2018-11-02T17:02:46.003Z,16.91
2018-11-02T17:05:16.235Z,16.83
2018-11-02T17:07:45.312Z,16.69
2018-11-02T17:10:15.347Z,16.82
2018-11-02T17:12:44.821Z,16.85
2018-11-02T17:15:14.275Z,16.92
2018-11-02T17:17:43.556Z,16.92
2018-11-02T17:20:14.279Z,16.93
2018-11-02T17:22:43.491Z,16.85
2018-11-02T17:25:13.223Z,16.94
2018-11-02T17:27:42.476Z,16.97
2018-11-02T17:30:15.590Z,16.78
2018-11-02T17:32:44.736Z,16.85
2018-11-02T17:35:13.991Z,16.91
2018-11-02T17:37:44.002Z,16.92
2018-11-02T17:40:14.452Z,16.88
2018-11-02T17:42:44.123Z,16.90
2018-11-02T17:45:13.334Z,16.95
2018-11-02T17:47:42.867Z,16.99
2018-11-02T17:50:14.175Z,16.90
2018-11-02T17:52:43.785Z,16.92
2018-11-02T17:55:13.810Z,16.88
2018-11-02T17:57:43.325Z,16.94
2018-11-02T18:00:13.521Z,16.73
2018-11-02T18:02:42.929Z,16.67
2018-11-02T18:05:14.408Z,16.67
2018-11-02T18:07:43.772Z,16.82
2018-11-02T18:10:18.931Z,16.86
2018-11-02T18:12:48.114Z,16.68
2018-11-02T18:15:18.270Z,16.65
2018-11-02T18:17:48.287Z,16.73
2018-11-02T18:20:17.436Z,16.98
2018-11-02T18:22:46.653Z,16.98
2018-11-02T18:25:16.959Z,17.03
2018-11-02T18:27:46.366Z,16.94
2018-11-02T18:30:16.496Z,16.86
2018-11-02T18:32:46.756Z,16.74
2018-11-02T18:35:16.052Z,16.83
2018-11-02T18:37:45.099Z,16.77
2018-11-02T18:40:14.198Z,16.61
2018-11-02T18:42:44.053Z,16.45
2018-11-02T18:45:14.663Z,16.31
2018-11-02T18:47:46.139Z,16.26
2018-11-02T18:50:17.081Z,16.23
2018-11-02T18:52:46.908Z,16.21
2018-11-02T18:55:17.034Z,16.14
2018-11-02T18:57:46.239Z,16.20
2018-11-02T19:00:16.515Z,16.25
2018-11-02T19:02:47.831Z,16.41
2018-11-02T19:05:18.095Z,16.53
2018-11-02T19:07:47.223Z,16.46
2018-11-02T19:10:17.048Z,16.34
2018-11-02T19:12:46.099Z,16.34
2018-11-02T19:15:17.546Z,16.38
2018-11-02T19:17:46.738Z,16.53
2018-11-02T19:20:16.210Z,16.72
2018-11-02T19:22:45.238Z,16.79
2018-11-02T19:25:15.735Z,16.87
2018-11-02T19:27:45.659Z,16.84
2018-11-02T19:30:15.220Z,16.42
2018-11-02T19:32:44.494Z,16.16
2018-11-02T19:35:14.253Z,15.95
2018-11-02T19:37:43.542Z,15.75
2018-11-02T19:40:14.044Z,15.50
2018-11-02T19:42:43.328Z,15.42
2018-11-02T19:45:12.759Z,15.30
2018-11-02T19:47:47.463Z,15.25
2018-11-02T19:50:17.577Z,15.11
2018-11-02T19:52:46.742Z,15.01
2018-11-02T19:55:15.896Z,14.94
2018-11-02T19:57:45.034Z,14.89
2018-11-02T20:00:15.633Z,14.92
2018-11-02T20:02:44.685Z,14.90
2018-11-02T20:05:15.971Z,14.88
2018-11-02T20:07:45.155Z,14.85
2018-11-02T20:10:15.231Z,14.82
2018-11-02T20:12:45.759Z,14.75
2018-11-02T20:15:15.356Z,14.67
2018-11-02T20:17:44.511Z,14.67
2018-11-02T20:20:14.630Z,14.66
2018-11-02T20:22:43.787Z,14.63
2018-11-02T20:25:14.483Z,14.58
2018-11-02T20:27:43.747Z,14.60
2018-11-02T20:30:17.847Z,14.59
2018-11-02T20:32:48.093Z,14.63
2018-11-02T20:35:17.269Z,14.63
2018-11-02T20:37:46.420Z,14.65
2018-11-02T20:40:17.256Z,14.66
2018-11-02T20:42:46.547Z,14.60
2018-11-02T20:45:16.243Z,14.59
2018-11-02T20:47:48.553Z,14.60
2018-11-02T20:50:17.771Z,14.61
2018-11-02T20:52:46.990Z,14.59
2018-11-02T20:55:16.618Z,14.63
2018-11-02T20:57:45.696Z,14.59
2018-11-02T21:00:17.331Z,14.64
2018-11-02T21:02:46.512Z,14.63
2018-11-02T21:05:17.417Z,14.61
2018-11-02T21:07:46.967Z,14.62
2018-11-02T21:10:17.354Z,14.56
2018-11-02T21:12:46.668Z,14.56
2018-11-02T21:15:17.239Z,14.55
2018-11-02T21:17:46.517Z,14.50
2018-11-02T21:20:18.880Z,14.49
2018-11-02T21:22:48.016Z,14.49
2018-11-02T21:25:17.160Z,14.51
2018-11-02T21:27:46.740Z,14.56
2018-11-02T21:30:17.907Z,14.55
2018-11-02T21:32:47.791Z,14.53
2018-11-02T21:35:17.673Z,14.55
2018-11-02T21:37:47.556Z,14.54
2018-11-02T21:40:18.111Z,14.52
2018-11-02T21:42:47.370Z,14.52
2018-11-02T21:45:18.124Z,14.54
2018-11-02T21:47:47.401Z,14.54
2018-11-02T21:50:16.787Z,14.57
2018-11-02T21:52:45.923Z,14.60
2018-11-02T21:55:15.114Z,14.60
2018-11-02T21:57:44.242Z,14.59
2018-11-02T22:00:18.294Z,14.56
2018-11-02T22:02:47.879Z,14.55
2018-11-02T22:05:17.115Z,14.51
2018-11-02T22:07:47.536Z,14.51
2018-11-02T22:10:17.154Z,14.53
2018-11-02T22:12:46.924Z,14.57
2018-11-02T22:15:16.816Z,14.56
2018-11-02T22:17:45.955Z,14.58
2018-11-02T22:20:15.576Z,14.57
2018-11-02T22:22:44.775Z,14.56
2018-11-02T22:25:14.695Z,14.55
2018-11-02T22:27:43.847Z,14.54
2018-11-02T22:30:15.041Z,14.49
2018-11-02T22:32:44.158Z,14.49
2018-11-02T22:35:13.987Z,14.46
2018-11-02T22:37:44.052Z,14.48
2018-11-02T22:40:13.748Z,14.50
2018-11-02T22:42:43.252Z,14.52
2018-11-02T22:45:13.318Z,14.51
2018-11-02T22:47:46.944Z,14.53
2018-11-02T22:50:16.053Z,14.50
2018-11-02T22:52:46.016Z,14.50
2018-11-02T22:55:15.973Z,14.44
2018-11-02T22:57:45.209Z,14.40
2018-11-02T23:00:16.679Z,14.44
2018-11-02T23:02:46.720Z,14.47
2018-11-02T23:05:15.938Z,14.51
2018-11-02T23:07:46.231Z,14.52
2018-11-02T23:10:15.506Z,14.54
2018-11-02T23:12:44.678Z,14.57
2018-11-02T23:15:13.877Z,14.49
2018-11-02T23:17:43.096Z,14.45
2018-11-02T23:20:13.775Z,14.49
2018-11-02T23:22:42.842Z,14.45
2018-11-02T23:25:12.466Z,14.43
2018-11-02T23:27:43.280Z,14.45
2018-11-02T23:30:12.579Z,14.48
2018-11-02T23:32:41.809Z,14.51
2018-11-02T23:35:10.974Z,14.50
2018-11-02T23:37:40.253Z,14.49
2018-11-02T23:40:10.929Z,14.52
2018-11-02T23:42:40.210Z,14.53
2018-11-02T23:45:10.455Z,14.56
2018-11-02T23:47:43.953Z,14.56
2018-11-02T23:50:13.071Z,14.55
2018-11-02T23:52:42.275Z,14.44
2018-11-02T23:55:11.495Z,14.43
2018-11-02T23:57:41.291Z,14.42
